Hovedside
METAR-TAF:

METAR-TAF

Lufthavner :

Villmanstrand lufthavn

Villmanstrand, Finland

breddegrad: 61-02-45N, lengdegrad: 028-08-55E, høyde over havet: 106 m

Gjeldene værobservasjon

Denne rapporten ble laget for 35 minutter siden, klokken 16:20 UTC
Vind 6 kt fra Vest, skiftende mellom Vest-sørvest og Nordvest
Temperatur 18°C
Luftfuktighet 64%
Trykk 1015 hPa
Sikt 10 km eller mer
lette regnbyger,

METAR: EFLP 241620Z AUTO 28006KT 250V310 9999 -SHRA //////CB 18/11 Q1015

Tid: 19:55 (16:55 UTC)

Varsel

Denne rapporten ble laget for 11 timer og 31 minutter siden, klokken 05:24 UTC
Varsel gyldig fra 24. klokken 06 UTC til 24. klokken 09 UTC
Vind 6 kt fra Vest-sørvest
Sikt 10 km eller mer
ingen skyer under 1500 m og ingen bygeskyer
Sannsynlighet 30% :
Midlertidig
fra 24. klokken 06 UTC til 24. klokken 09 UTC
Få skyer i en høyde av 5000 ft, Bygeskyer.

TAF: EFLP 240524Z 2406/2409 25006KT CAVOK PROB30 TEMPO 2406/2409 FEW050CB

Værobservasjoner og værvarsel for over 4000 flyplasser (METAR- og TAF-rapporter).

Tilgjengelige stasjoner er representert av de røde og gule prikkene på kartet.

Hold musepekeren over prikken for å se navnet på stasjonen.

Klikk så for å se værobservasjoner og -varsler.

For å forandre kartet kan du klikke på den grønne knappen med svart kryss for å zoome inn, på den grønne knappen med strek for å zoome ut, eller på de grønne pilene for å se tilstøtende kart.


METAR-TAF: